Time;durP1;ratioP1;P1;durP2;ratioP2;P2;SDS_P1;SDS_P2;PMS_P1;PMS_P2;Temp;Humidity;BMP_temperature;BMP_pressure;BME280_temperature;BME280_humidity;BME280_pressure;Samples;Min_cycle;Max_cycle;Signal;HPM_P1;HPM_P2
2022/04/24 00:02:13;;;;;;;6.45;5.85;;;10.40;80.80;;;;;;5039180;28;20042;-86
2022/04/24 00:04:40;;;;;;;6.55;5.95;;;10.30;80.40;;;;;;5036383;28;20045;-86
2022/04/24 00:07:09;;;;;;;6.85;6.15;;;10.30;80.90;;;;;;5039959;28;20025;-86
2022/04/24 00:09:36;;;;;;;7.43;5.60;;;10.30;81.00;;;;;;5043139;28;20051;-86
2022/04/24 00:12:01;;;;;;;6.43;5.82;;;10.20;81.30;;;;;;5040781;28;20036;-85
2022/04/24 00:14:27;;;;;;;6.93;6.32;;;10.30;81.40;;;;;;5041112;28;20022;-85
2022/04/24 00:16:53;;;;;;;6.80;6.20;;;10.30;81.40;;;;;;5036077;28;20121;-85
2022/04/24 00:19:19;;;;;;;6.45;5.85;;;10.40;81.40;;;;;;5045686;28;20468;-86
2022/04/24 00:21:45;;;;;;;6.25;5.65;;;10.50;81.60;;;;;;5039080;28;20038;-85
2022/04/24 00:24:12;;;;;;;6.75;6.15;;;10.40;81.10;;;;;;5034088;28;20136;-86
2022/04/24 00:26:38;;;;;;;7.38;6.72;;;10.50;81.20;;;;;;5044096;28;20053;-85
2022/04/24 00:29:04;;;;;;;7.65;6.05;;;10.50;81.40;;;;;;5042171;28;20026;-85
2022/04/24 00:31:30;;;;;;;7.32;6.63;;;10.40;81.60;;;;;;5052751;28;20366;-86
2022/04/24 00:33:55;;;;;;;7.53;6.90;;;10.40;81.50;;;;;;5044409;28;20378;-85
2022/04/24 00:36:21;;;;;;;7.43;6.75;;;10.40;81.60;;;;;;5056445;28;20048;-86
2022/04/24 00:38:47;;;;;;;7.20;6.45;;;10.40;81.90;;;;;;5042535;28;20056;-86
2022/04/24 00:41:12;;;;;;;8.77;7.03;;;10.40;81.80;;;;;;5042004;28;20559;-85
2022/04/24 00:43:38;;;;;;;8.85;6.47;;;10.40;81.80;;;;;;5040984;28;20044;-85
2022/04/24 00:46:14;;;;;;;7.40;6.75;;;10.40;82.00;;;;;;5042773;28;20113;-86
2022/04/24 00:48:42;;;;;;;6.97;6.38;;;10.30;82.30;;;;;;5053481;28;20026;-85
2022/04/24 00:51:08;;;;;;;7.53;6.82;;;10.20;82.70;;;;;;5042126;28;20029;-86
2022/04/24 00:53:35;;;;;;;7.40;6.80;;;10.20;83.70;;;;;;5040390;28;20080;-85
2022/04/24 00:56:02;;;;;;;9.38;8.48;;;10.10;83.20;;;;;;5046664;28;20029;-85
2022/04/24 00:58:27;;;;;;;8.32;7.63;;;10.10;83.80;;;;;;5045024;28;20103;-86
2022/04/24 01:00:54;;;;;;;8.05;7.25;;;10.10;84.00;;;;;;5040508;28;20441;-86
2022/04/24 01:03:20;;;;;;;8.30;7.65;;;10.00;84.10;;;;;;5044635;28;20030;-86
2022/04/24 01:05:46;;;;;;;9.65;8.65;;;10.10;84.20;;;;;;5042808;28;20071;-85
2022/04/24 01:08:11;;;;;;;8.45;7.75;;;10.00;84.20;;;;;;5043029;28;20034;-84
2022/04/24 01:10:40;;;;;;;8.50;7.70;;;10.00;84.50;;;;;;5042018;28;20036;-86
2022/04/24 01:13:06;;;;;;;8.57;7.78;;;9.90;84.80;;;;;;5029182;28;20037;-85
2022/04/24 01:15:32;;;;;;;9.20;8.30;;;9.90;84.80;;;;;;5058768;28;20037;-85
2022/04/24 01:17:59;;;;;;;8.95;8.07;;;9.90;85.00;;;;;;5043250;28;20043;-86
2022/04/24 01:20:25;;;;;;;8.00;7.28;;;9.90;85.30;;;;;;5037176;28;20092;-85
2022/04/24 01:22:51;;;;;;;8.65;7.85;;;9.80;85.30;;;;;;5042884;28;20548;-85
2022/04/24 01:25:17;;;;;;;9.10;8.18;;;9.80;85.80;;;;;;5037325;28;20147;-86
2022/04/24 01:27:43;;;;;;;10.27;9.15;;;9.80;85.90;;;;;;5038568;28;20518;-86
2022/04/24 01:30:09;;;;;;;9.32;8.60;;;9.80;86.20;;;;;;5033491;28;20030;-85
2022/04/24 01:32:35;;;;;;;9.60;8.75;;;9.80;86.20;;;;;;5042744;28;20029;-86
2022/04/24 01:35:02;;;;;;;12.20;9.75;;;9.80;86.30;;;;;;5056532;28;20034;-85
2022/04/24 01:37:27;;;;;;;10.40;9.38;;;9.80;86.40;;;;;;5042408;28;20022;-86
2022/04/24 01:39:54;;;;;;;12.45;11.35;;;9.80;86.50;;;;;;5040899;28;20034;-85
2022/04/24 01:42:19;;;;;;;10.02;9.15;;;9.70;87.00;;;;;;5035383;28;20037;-85
2022/04/24 01:44:45;;;;;;;11.27;10.02;;;9.80;87.60;;;;;;5042615;28;20037;-85
2022/04/24 01:47:11;;;;;;;13.18;11.88;;;9.80;87.60;;;;;;5032414;28;20072;-85
2022/04/24 01:49:36;;;;;;;11.88;10.40;;;9.70;87.90;;;;;;5044166;28;20030;-85
2022/04/24 01:52:05;;;;;;;11.70;10.48;;;9.70;88.20;;;;;;5041992;28;20025;-85
2022/04/24 01:54:31;;;;;;;11.48;10.40;;;9.60;88.80;;;;;;5053918;28;20086;-85
2022/04/24 01:56:56;;;;;;;12.77;11.45;;;9.60;89.30;;;;;;5043312;28;20025;-85
2022/04/24 01:59:22;;;;;;;12.55;11.23;;;9.60;89.50;;;;;;5041481;28;20120;-86
2022/04/24 02:01:48;;;;;;;12.32;11.13;;;9.50;89.60;;;;;;5043720;28;20571;-85
2022/04/24 02:04:13;;;;;;;15.95;12.40;;;9.50;90.00;;;;;;5048427;28;20112;-85
2022/04/24 02:06:39;;;;;;;13.73;11.68;;;9.40;90.30;;;;;;5038672;28;20037;-86
2022/04/24 02:09:04;;;;;;;14.65;12.82;;;9.40;90.40;;;;;;5040206;28;20030;-86
2022/04/24 02:11:30;;;;;;;14.93;11.73;;;9.40;90.50;;;;;;5030839;28;20025;-85
2022/04/24 02:13:56;;;;;;;12.75;11.50;;;9.40;90.60;;;;;;5040644;28;20082;-86
2022/04/24 02:16:21;;;;;;;14.85;12.35;;;9.30;90.80;;;;;;5042350;28;20025;-86
2022/04/24 02:18:47;;;;;;;13.93;12.57;;;9.30;90.90;;;;;;5056479;28;20059;-85
2022/04/24 02:21:13;;;;;;;14.57;13.27;;;9.30;91.20;;;;;;5040261;28;20041;-85
2022/04/24 02:23:39;;;;;;;13.45;12.15;;;9.30;91.40;;;;;;5041429;28;20017;-86
2022/04/24 02:26:05;;;;;;;17.08;13.25;;;9.40;91.40;;;;;;5033446;28;20049;-86
2022/04/24 02:28:31;;;;;;;14.43;12.93;;;9.40;91.40;;;;;;5041588;28;20132;-85
2022/04/24 02:30:56;;;;;;;13.25;12.05;;;9.50;91.50;;;;;;5039524;28;20111;-85
2022/04/24 02:33:22;;;;;;;14.25;12.77;;;9.50;91.30;;;;;;5039080;28;20656;-86
2022/04/24 02:35:48;;;;;;;13.45;12.25;;;9.60;91.50;;;;;;5042083;28;20036;-86
2022/04/24 02:38:14;;;;;;;12.48;11.27;;;9.60;91.40;;;;;;5032023;28;20048;-85
2022/04/24 02:40:40;;;;;;;14.50;12.70;;;9.50;91.50;;;;;;5039789;28;20389;-86
2022/04/24 02:43:05;;;;;;;15.57;13.82;;;9.50;91.60;;;;;;5035778;28;20022;-85
2022/04/24 02:45:31;;;;;;;15.48;12.57;;;9.40;91.70;;;;;;5035089;28;20036;-86
2022/04/24 02:47:57;;;;;;;15.43;13.75;;;9.30;91.80;;;;;;5046496;28;20040;-85
2022/04/24 02:50:23;;;;;;;20.73;14.18;;;9.30;92.30;;;;;;5051136;28;20444;-85
2022/04/24 02:52:50;;;;;;;17.08;12.88;;;9.20;92.50;;;;;;5038544;28;20017;-86
2022/04/24 02:55:16;;;;;;;23.85;15.20;;;9.20;92.70;;;;;;5050189;28;20032;-86
2022/04/24 02:57:43;;;;;;;20.77;15.00;;;9.10;93.00;;;;;;5042775;28;20180;-86
2022/04/24 03:00:10;;;;;;;13.88;12.63;;;9.10;93.00;;;;;;5036761;28;20404;-86
2022/04/24 03:02:43;;;;;;;14.88;13.25;;;9.00;93.40;;;;;;5045059;28;20032;-86
2022/04/24 03:05:11;;;;;;;19.73;13.65;;;9.00;93.70;;;;;;5045715;28;20033;-86
2022/04/24 03:07:36;;;;;;;14.77;12.90;;;9.00;94.00;;;;;;5040785;28;20021;-86
2022/04/24 03:10:03;;;;;;;26.00;16.05;;;9.00;94.40;;;;;;5045940;28;20030;-86
2022/04/24 03:12:31;;;;;;;13.75;12.35;;;8.90;94.30;;;;;;5038208;28;20497;-86
2022/04/24 03:14:57;;;;;;;15.07;12.38;;;8.90;94.80;;;;;;5037648;28;20034;-86
2022/04/24 03:17:23;;;;;;;13.15;11.73;;;8.80;94.90;;;;;;5034635;28;20564;-87
2022/04/24 03:19:48;;;;;;;15.82;13.45;;;8.80;95.50;;;;;;5039403;28;20036;-86
2022/04/24 03:22:14;;;;;;;19.98;14.50;;;8.90;95.80;;;;;;5037113;28;20029;-87
2022/04/24 03:24:40;;;;;;;17.45;14.18;;;9.00;96.30;;;;;;5038578;28;20025;-85
2022/04/24 03:27:05;;;;;;;14.70;13.20;;;9.00;96.50;;;;;;5044303;28;20037;-84
2022/04/24 03:29:31;;;;;;;13.35;11.85;;;9.10;96.80;;;;;;5053740;28;20586;-85
2022/04/24 03:31:56;;;;;;;15.52;13.55;;;9.10;96.80;;;;;;5045442;28;20054;-86
2022/04/24 03:34:22;;;;;;;16.98;13.55;;;9.00;96.80;;;;;;5035311;28;20023;-84
2022/04/24 03:36:48;;;;;;;14.05;12.60;;;8.90;96.90;;;;;;5041001;28;20030;-86
2022/04/24 03:39:13;;;;;;;14.93;13.27;;;8.90;98.00;;;;;;5038136;28;20033;-85
2022/04/24 03:41:40;;;;;;;15.18;13.68;;;9.00;98.40;;;;;;5034421;28;20037;-86
2022/04/24 03:44:06;;;;;;;17.90;14.63;;;9.00;98.40;;;;;;5040661;28;20064;-85
2022/04/24 03:46:31;;;;;;;15.23;13.77;;;9.00;99.10;;;;;;5040583;28;20044;-85
2022/04/24 03:48:57;;;;;;;17.08;15.27;;;9.20;99.40;;;;;;5037029;28;20044;-85
2022/04/24 03:51:23;;;;;;;15.23;13.70;;;9.20;99.50;;;;;;5033826;28;20727;-86
2022/04/24 03:53:48;;;;;;;19.73;15.35;;;9.20;99.60;;;;;;5035534;28;20044;-86
2022/04/24 03:56:14;;;;;;;15.95;14.32;;;9.30;99.90;;;;;;5041664;28;20041;-86
2022/04/24 03:58:39;;;;;;;18.00;14.18;;;9.30;99.90;;;;;;5034572;28;20013;-85
2022/04/24 04:01:05;;;;;;;18.85;16.55;;;9.30;99.90;;;;;;5041854;28;20036;-86
2022/04/24 04:03:30;;;;;;;18.77;15.13;;;9.30;99.90;;;;;;5034794;28;20025;-87
2022/04/24 04:05:56;;;;;;;16.30;14.10;;;9.40;99.90;;;;;;5040055;28;20020;-86
2022/04/24 04:08:22;;;;;;;17.35;13.75;;;9.60;99.90;;;;;;5038383;28;20029;-87
2022/04/24 04:10:47;;;;;;;16.13;14.68;;;9.70;99.90;;;;;;5037808;28;20028;-86
2022/04/24 04:13:13;;;;;;;16.40;14.18;;;9.80;99.90;;;;;;5038341;28;20511;-86
2022/04/24 04:15:39;;;;;;;16.20;14.27;;;9.80;99.60;;;;;;5037076;28;20025;-86
2022/04/24 04:18:05;;;;;;;19.27;14.75;;;9.80;99.40;;;;;;5039185;28;20044;-88
2022/04/24 04:20:30;;;;;;;15.88;14.35;;;9.90;99.70;;;;;;5054242;28;20032;-86
2022/04/24 04:22:56;;;;;;;15.80;14.20;;;9.90;99.50;;;;;;5038736;28;20030;-86
2022/04/24 04:25:24;;;;;;;16.40;14.18;;;9.90;99.70;;;;;;5036205;28;20021;-86
2022/04/24 04:27:50;;;;;;;20.25;15.80;;;10.00;99.80;;;;;;5042294;28;20025;-86
2022/04/24 04:30:16;;;;;;;15.57;14.07;;;10.00;99.70;;;;;;5036221;28;20030;-86
2022/04/24 04:32:42;;;;;;;17.85;16.15;;;10.00;99.70;;;;;;5040695;28;20049;-86
2022/04/24 04:35:09;;;;;;;16.95;15.30;;;10.00;99.60;;;;;;5040600;28;20037;-85
2022/04/24 04:37:39;;;;;;;17.17;15.00;;;10.10;99.50;;;;;;5035040;28;20104;-86
2022/04/24 04:40:06;;;;;;;16.85;15.10;;;10.10;99.40;;;;;;5041799;28;20017;-87
2022/04/24 04:42:32;;;;;;;16.05;14.50;;;10.10;99.10;;;;;;5043286;28;20582;-83
2022/04/24 04:45:00;;;;;;;16.33;14.63;;;10.10;99.30;;;;;;5040897;28;20116;-85
2022/04/24 04:47:29;;;;;;;15.68;14.07;;;10.20;99.00;;;;;;5042268;28;20133;-85
2022/04/24 04:49:54;;;;;;;15.93;14.43;;;10.20;98.80;;;;;;5054007;28;20056;-85
2022/04/24 04:52:21;;;;;;;14.77;13.48;;;10.30;98.70;;;;;;5039337;28;20468;-85
2022/04/24 04:54:46;;;;;;;15.10;13.70;;;10.30;98.70;;;;;;5039275;28;20039;-86
2022/04/24 04:57:12;;;;;;;16.45;14.68;;;10.30;99.00;;;;;;5036252;28;20057;-86
2022/04/24 04:59:38;;;;;;;16.83;14.90;;;10.20;98.90;;;;;;5039154;28;20052;-85
2022/04/24 05:02:04;;;;;;;16.88;14.88;;;10.30;99.00;;;;;;5040954;28;20099;-86
2022/04/24 05:04:30;;;;;;;16.02;14.60;;;10.30;99.10;;;;;;5041591;28;20032;-85
2022/04/24 05:06:56;;;;;;;20.27;14.48;;;10.30;99.10;;;;;;5041576;28;20022;-86
2022/04/24 05:09:21;;;;;;;16.77;15.20;;;10.40;98.90;;;;;;5041992;28;20025;-86
2022/04/24 05:11:47;;;;;;;20.45;17.10;;;10.50;98.50;;;;;;5040814;28;20068;-85
2022/04/24 05:14:13;;;;;;;18.08;15.93;;;10.50;98.40;;;;;;5033941;28;20040;-85
2022/04/24 05:16:38;;;;;;;16.30;14.57;;;10.50;98.10;;;;;;5039529;28;20083;-86
2022/04/24 05:19:07;;;;;;;20.52;15.73;;;10.60;98.20;;;;;;5042706;28;20381;-86
2022/04/24 05:21:33;;;;;;;17.40;15.23;;;10.60;98.10;;;;;;5039562;28;20449;-85
2022/04/24 05:24:00;;;;;;;21.17;16.35;;;10.60;98.20;;;;;;5048490;28;20013;-87
2022/04/24 05:26:26;;;;;;;18.10;16.02;;;10.60;98.40;;;;;;5040021;28;20109;-86
2022/04/24 05:28:52;;;;;;;17.85;15.32;;;10.60;97.90;;;;;;5043964;28;20033;-83
2022/04/24 05:31:18;;;;;;;16.33;14.63;;;10.60;98.40;;;;;;5054257;28;20029;-86
2022/04/24 05:33:44;;;;;;;17.98;15.88;;;10.70;97.80;;;;;;5041513;28;20029;-86
2022/04/24 05:36:12;;;;;;;18.52;15.48;;;10.70;98.00;;;;;;5035147;28;20048;-87
2022/04/24 05:38:37;;;;;;;16.90;15.40;;;10.70;97.80;;;;;;5042848;28;20056;-87
2022/04/24 05:41:03;;;;;;;16.70;15.02;;;10.70;97.50;;;;;;5043536;28;20076;-86
2022/04/24 05:43:29;;;;;;;16.20;14.60;;;10.70;97.80;;;;;;5044387;28;20537;-86
2022/04/24 05:45:55;;;;;;;17.08;15.32;;;10.70;97.80;;;;;;5040440;28;20163;-86
2022/04/24 05:48:22;;;;;;;16.88;15.43;;;10.70;97.50;;;;;;5033143;28;20116;-86
2022/04/24 05:50:48;;;;;;;16.92;15.32;;;10.70;97.90;;;;;;5044471;28;20037;-86
2022/04/24 05:53:14;;;;;;;16.50;14.73;;;10.70;97.60;;;;;;5033983;28;20033;-85
2022/04/24 05:55:39;;;;;;;15.52;14.13;;;10.70;98.30;;;;;;5040017;28;20166;-86
2022/04/24 05:58:05;;;;;;;16.30;14.90;;;10.70;98.10;;;;;;5042671;28;20018;-86
2022/04/24 06:00:31;;;;;;;16.27;14.80;;;10.70;97.40;;;;;;5035278;28;20051;-85
2022/04/24 06:02:57;;;;;;;15.77;14.20;;;10.70;97.00;;;;;;5056490;28;20038;-86
2022/04/24 06:05:23;;;;;;;15.85;14.32;;;10.70;97.80;;;;;;5040912;28;20033;-87
2022/04/24 06:07:49;;;;;;;16.08;14.70;;;10.80;96.50;;;;;;5047792;28;20047;-86
2022/04/24 06:10:15;;;;;;;15.30;14.00;;;10.80;96.40;;;;;;5034008;28;20021;-86
2022/04/24 06:12:45;;;;;;;15.38;13.90;;;10.90;97.00;;;;;;5038816;28;20032;-87
2022/04/24 06:15:15;;;;;;;14.02;12.82;;;11.00;97.00;;;;;;5031195;28;20030;-86
2022/04/24 06:17:46;;;;;;;15.20;13.70;;;11.10;96.90;;;;;;5057325;28;20366;-86
2022/04/24 06:20:13;;;;;;;15.02;13.63;;;11.20;96.50;;;;;;5039291;28;20033;-86
2022/04/24 06:22:49;;;;;;;14.20;12.93;;;11.30;95.40;;;;;;5034713;28;20646;-86
2022/04/24 06:25:19;;;;;;;15.80;14.38;;;11.30;95.90;;;;;;5045371;28;20507;-86
2022/04/24 06:27:46;;;;;;;14.82;13.48;;;11.50;96.10;;;;;;5038114;28;20082;-87
2022/04/24 06:30:13;;;;;;;15.70;14.35;;;11.70;95.00;;;;;;5029723;28;20124;-86
2022/04/24 06:32:42;;;;;;;14.25;12.15;;;12.00;94.50;;;;;;5046169;28;20488;-87
2022/04/24 06:35:10;;;;;;;12.98;11.77;;;12.50;93.60;;;;;;5038413;28;20056;-87
2022/04/24 06:37:40;;;;;;;13.23;12.05;;;12.90;92.40;;;;;;5047109;28;20112;-87
2022/04/24 06:40:07;;;;;;;12.60;11.38;;;13.20;91.00;;;;;;5039940;28;20029;-87
2022/04/24 06:42:33;;;;;;;12.63;11.52;;;13.30;90.80;;;;;;5056537;28;20061;-85
2022/04/24 06:44:59;;;;;;;12.48;11.35;;;13.40;90.00;;;;;;5040075;28;20029;-86
2022/04/24 06:47:27;;;;;;;12.80;11.65;;;13.40;90.20;;;;;;5033145;28;20534;-87
2022/04/24 06:49:53;;;;;;;12.90;11.68;;;13.20;89.20;;;;;;5040638;28;20036;-85
2022/04/24 06:52:19;;;;;;;13.35;11.95;;;13.00;89.00;;;;;;5038975;28;20036;-86
2022/04/24 06:54:45;;;;;;;13.00;11.90;;;12.80;89.50;;;;;;5039361;28;20029;-85
2022/04/24 06:57:10;;;;;;;13.77;12.68;;;12.50;90.30;;;;;;5029914;28;20537;-85
2022/04/24 06:59:36;;;;;;;13.93;12.60;;;12.20;90.90;;;;;;5042468;28;20116;-85
2022/04/24 07:02:02;;;;;;;13.73;12.38;;;12.00;91.70;;;;;;5038836;28;20097;-85
2022/04/24 07:04:27;;;;;;;13.25;12.05;;;11.90;91.90;;;;;;5041354;28;20029;-88
2022/04/24 07:06:53;;;;;;;13.50;12.20;;;11.90;92.50;;;;;;5056252;28;20021;-86
2022/04/24 07:09:18;;;;;;;13.77;12.43;;;11.80;92.30;;;;;;5034529;28;20467;-86
2022/04/24 07:11:44;;;;;;;14.13;12.82;;;11.60;93.50;;;;;;5040879;28;20025;-86
2022/04/24 07:14:10;;;;;;;14.48;13.27;;;11.70;93.30;;;;;;5040479;28;20041;-85
2022/04/24 07:16:35;;;;;;;14.82;13.52;;;11.70;93.10;;;;;;5038209;28;20075;-86
2022/04/24 07:19:01;;;;;;;14.05;11.57;;;11.70;93.00;;;;;;5038267;28;20033;-87
2022/04/24 07:21:27;;;;;;;13.98;12.65;;;11.70;93.00;;;;;;5031398;28;20052;-86
2022/04/24 07:23:53;;;;;;;13.95;12.75;;;11.70;92.70;;;;;;5036832;28;20079;-88
2022/04/24 07:26:18;;;;;;;12.90;11.73;;;11.70;93.10;;;;;;5039840;28;20090;-86
2022/04/24 07:28:44;;;;;;;13.63;12.35;;;11.70;92.90;;;;;;5039278;28;20021;-87
2022/04/24 07:31:13;;;;;;;13.30;12.20;;;11.80;93.10;;;;;;5042806;28;20103;-85
2022/04/24 07:33:39;;;;;;;14.02;12.85;;;11.90;92.80;;;;;;5044765;28;20049;-85
2022/04/24 07:36:05;;;;;;;15.35;14.05;;;11.70;92.30;;;;;;5037637;28;20041;-86
2022/04/24 07:38:30;;;;;;;13.98;12.77;;;11.70;92.60;;;;;;5039735;28;20025;-86
2022/04/24 07:40:56;;;;;;;14.90;13.52;;;11.60;93.10;;;;;;5036642;28;20069;-86
2022/04/24 07:43:21;;;;;;;14.85;13.45;;;11.60;93.10;;;;;;5038872;28;20026;-86
2022/04/24 07:45:48;;;;;;;16.80;14.02;;;11.50;93.10;;;;;;5043591;28;20025;-87
2022/04/24 07:48:14;;;;;;;14.43;13.10;;;11.50;93.50;;;;;;5036647;28;20035;-86
2022/04/24 07:50:45;;;;;;;16.65;14.63;;;11.50;95.20;;;;;;5040682;28;20036;-86
2022/04/24 07:53:12;;;;;;;15.48;14.07;;;11.40;95.40;;;;;;5040120;28;20124;-85
2022/04/24 07:55:40;;;;;;;16.73;15.00;;;11.30;95.50;;;;;;5042975;28;20033;-86
2022/04/24 07:58:06;;;;;;;17.17;15.50;;;11.20;95.70;;;;;;5032424;28;20021;-84
2022/04/24 08:00:33;;;;;;;16.13;14.68;;;11.10;96.30;;;;;;5038878;28;20048;-86
2022/04/24 08:03:07;;;;;;;16.15;14.68;;;11.00;97.10;;;;;;5044940;28;20017;-86
2022/04/24 08:05:34;;;;;;;16.15;14.60;;;10.90;97.00;;;;;;5038795;28;20038;-85
2022/04/24 08:08:02;;;;;;;17.05;15.35;;;10.80;97.00;;;;;;5039945;28;20826;-86
2022/04/24 08:10:31;;;;;;;16.42;14.85;;;10.70;98.10;;;;;;5036414;28;20511;-86
2022/04/24 08:12:57;;;;;;;16.73;14.70;;;10.70;99.80;;;;;;5053219;28;20033;-86
2022/04/24 08:15:23;;;;;;;18.17;16.30;;;10.60;99.90;;;;;;5042580;28;20021;-87
2022/04/24 08:17:48;;;;;;;17.90;16.00;;;10.60;99.90;;;;;;5049792;28;20029;-86
2022/04/24 08:20:15;;;;;;;17.85;16.10;;;10.50;99.90;;;;;;5030252;28;20026;-86
2022/04/24 08:22:52;;;;;;;18.00;16.30;;;10.50;99.90;;;;;;5037744;28;20026;-86
2022/04/24 08:25:20;;;;;;;19.45;16.73;;;10.40;99.90;;;;;;5035007;28;20049;-85
2022/04/24 08:27:47;;;;;;;20.00;17.95;;;10.30;99.90;;;;;;5039664;28;20059;-86
2022/04/24 08:30:14;;;;;;;20.35;18.17;;;10.30;99.90;;;;;;5041980;28;20025;-86
2022/04/24 08:32:41;;;;;;;22.83;18.75;;;10.10;99.90;;;;;;5036811;28;20056;-86
2022/04/24 08:35:09;;;;;;;20.05;18.02;;;10.10;99.90;;;;;;5037581;28;20420;-85
2022/04/24 08:37:35;;;;;;;72.40;39.40;;;10.10;99.90;;;;;;5038571;28;20024;-85
2022/04/24 08:40:03;;;;;;;24.77;21.48;;;10.00;99.90;;;;;;5050260;28;20032;-87
2022/04/24 08:42:30;;;;;;;73.55;41.17;;;9.90;99.90;;;;;;5035347;28;20041;-87
2022/04/24 08:44:56;;;;;;;29.13;23.02;;;9.90;99.90;;;;;;5047232;28;20029;-87
2022/04/24 08:47:23;;;;;;;23.00;20.52;;;9.80;99.90;;;;;;5041343;28;20509;-87
2022/04/24 08:49:49;;;;;;;26.00;21.15;;;9.80;99.90;;;;;;5054128;28;20124;-86
2022/04/24 08:52:16;;;;;;;26.63;21.77;;;9.80;99.90;;;;;;5035113;28;20057;-86
2022/04/24 08:54:42;;;;;;;29.45;20.88;;;9.90;99.90;;;;;;5040802;28;20022;-86
2022/04/24 08:57:12;;;;;;;34.17;21.23;;;10.00;99.90;;;;;;5035740;28;20098;-86
2022/04/24 08:59:38;;;;;;;37.63;26.52;;;10.00;99.90;;;;;;5046923;28;20078;-88
2022/04/24 09:02:05;;;;;;;23.73;20.20;;;10.00;99.90;;;;;;5045879;28;20033;-88
2022/04/24 09:04:35;;;;;;;24.98;19.55;;;9.90;99.90;;;;;;5038652;28;20025;-87
2022/04/24 09:07:07;;;;;;;26.50;22.02;;;9.90;99.90;;;;;;5057539;28;20033;-88
2022/04/24 09:09:41;;;;;;;26.05;21.65;;;9.80;99.90;;;;;;5045100;28;20043;-88
2022/04/24 09:12:14;;;;;;;32.40;24.60;;;9.70;99.90;;;;;;5037827;28;20037;-87
2022/04/24 09:14:41;;;;;;;28.88;24.77;;;9.70;99.90;;;;;;5047734;28;20159;-88
2022/04/24 09:17:16;;;;;;;27.17;22.35;;;9.70;99.90;;;;;;5037863;28;20080;-88
2022/04/24 09:19:41;;;;;;;26.23;22.48;;;9.70;99.90;;;;;;5040732;28;20075;-88
2022/04/24 09:22:11;;;;;;;30.02;22.08;;;9.70;99.90;;;;;;5046291;28;20029;-88
2022/04/24 09:24:44;;;;;;;30.10;22.85;;;9.60;99.90;;;;;;5056046;28;20064;-87
2022/04/24 09:27:12;;;;;;;36.08;26.02;;;9.50;99.90;;;;;;5050225;28;20026;-86
2022/04/24 09:29:40;;;;;;;42.38;26.60;;;9.50;99.90;;;;;;5042196;28;20028;-88
2022/04/24 09:32:11;;;;;;;32.85;24.58;;;9.50;99.90;;;;;;5043770;28;20037;-89
2022/04/24 09:34:37;;;;;;;38.63;26.63;;;9.50;99.90;;;;;;5028822;28;20052;-87
2022/04/24 09:37:05;;;;;;;38.97;27.58;;;9.50;99.90;;;;;;5048766;28;20147;-88
2022/04/24 09:39:35;;;;;;;41.38;28.33;;;9.50;99.90;;;;;;5046853;28;20033;-89
2022/04/24 09:42:09;;;;;;;42.73;28.07;;;9.60;99.90;;;;;;5048098;28;20495;-88
2022/04/24 09:44:45;;;;;;;44.03;26.98;;;9.80;99.90;;;;;;5042120;28;20113;-88
2022/04/24 09:47:11;;;;;;;33.35;25.35;;;9.90;99.90;;;;;;5035991;28;20057;-87
2022/04/24 09:49:41;;;;;;;32.40;24.17;;;10.00;99.90;;;;;;5059212;28;20052;-88
2022/04/24 09:52:16;;;;;;;35.08;26.70;;;10.00;99.90;;;;;;5050720;28;20493;-89
2022/04/24 09:54:44;;;;;;;31.50;24.15;;;10.10;99.90;;;;;;5051215;28;20034;-89
2022/04/24 09:57:13;;;;;;;32.08;24.05;;;10.10;99.90;;;;;;5049134;28;20025;-88
2022/04/24 09:59:43;;;;;;;35.60;23.83;;;10.10;99.90;;;;;;5047638;28;20029;-89
2022/04/24 10:02:10;;;;;;;34.80;27.90;;;10.10;99.90;;;;;;5016556;28;20041;-88
2022/04/24 10:04:38;;;;;;;33.22;25.83;;;10.10;99.90;;;;;;5045754;28;20025;-88
2022/04/24 10:07:09;;;;;;;35.60;24.85;;;10.10;99.90;;;;;;5049710;28;20029;-88
2022/04/24 10:09:36;;;;;;;18.63;12.70;;;10.10;99.90;;;;;;5034008;28;20503;-89
2022/04/24 10:12:06;;;;;;;8.30;7.45;;;9.90;99.90;;;;;;5038416;28;20164;-87
2022/04/24 10:14:37;;;;;;;7.35;6.65;;;9.80;99.90;;;;;;5037959;28;20037;-88
2022/04/24 10:17:26;;;;;;;10.07;6.93;;;9.70;99.90;;;;;;5044409;28;20034;-89
2022/04/24 10:20:28;;;;;;;8.00;7.20;;;9.60;99.90;;;;;;5024412;28;20033;-87
2022/04/24 10:22:55;;;;;;;7.95;7.15;;;9.60;99.90;;;;;;5048669;28;20041;-87
2022/04/24 10:25:37;;;;;;;7.45;6.80;;;9.60;99.90;;;;;;5045030;28;20083;-87
2022/04/24 10:28:36;;;;;;;8.63;7.82;;;9.70;99.90;;;;;;5044244;28;20408;-87
2022/04/24 10:31:04;;;;;;;8.63;7.90;;;9.80;99.90;;;;;;5044188;28;20029;-87
2022/04/24 10:33:32;;;;;;;15.10;13.70;;;9.90;99.90;;;;;;5040191;28;20029;-88
2022/04/24 10:36:07;;;;;;;9.60;8.80;;;10.10;99.90;;;;;;5053520;28;20571;-87
2022/04/24 10:38:44;;;;;;;7.15;6.45;;;10.30;99.90;;;;;;5043611;28;20063;-87
2022/04/24 10:41:17;;;;;;;5.70;4.60;;;10.50;99.90;;;;;;5038543;28;20029;-87
2022/04/24 10:44:12;;;;;;;5.63;5.07;;;10.70;99.90;;;;;;5060912;28;20032;-85
2022/04/24 10:46:42;;;;;;;7.20;6.60;;;10.90;99.90;;;;;;5033789;28;20033;-87
2022/04/24 10:49:16;;;;;;;9.57;8.05;;;11.00;99.90;;;;;;5043403;28;20057;-87
2022/04/24 10:51:43;;;;;;;10.75;8.18;;;11.00;99.90;;;;;;5039153;28;20034;-87
2022/04/24 10:54:13;;;;;;;5.18;4.68;;;11.10;99.90;;;;;;5040765;28;20120;-88
2022/04/24 10:56:41;;;;;;;4.07;3.67;;;11.10;99.90;;;;;;5045671;28;20512;-87
2022/04/24 10:59:18;;;;;;;4.40;4.00;;;11.00;99.90;;;;;;5040124;28;20536;-89
2022/04/24 11:01:55;;;;;;;7.15;6.22;;;11.00;99.90;;;;;;5036855;28;20355;-88
2022/04/24 11:04:22;;;;;;;5.50;4.95;;;10.90;99.90;;;;;;5048981;28;20017;-90
2022/04/24 11:06:55;;;;;;;4.80;4.40;;;10.90;99.90;;;;;;5045362;28;20505;-88
2022/04/24 11:09:21;;;;;;;4.22;3.92;;;10.80;99.90;;;;;;5029156;28;20087;-87
2022/04/24 11:12:07;;;;;;;4.82;3.45;;;10.80;99.90;;;;;;5039828;28;20501;-88
2022/04/24 11:14:34;;;;;;;3.53;3.20;;;10.80;99.90;;;;;;5045252;28;20048;-89
2022/04/24 11:17:03;;;;;;;4.10;3.72;;;10.90;99.90;;;;;;5039686;28;20025;-88
2022/04/24 11:19:28;;;;;;;5.43;4.65;;;10.90;99.90;;;;;;5040413;28;20021;-88
2022/04/24 11:22:08;;;;;;;7.53;6.82;;;10.90;99.90;;;;;;5049009;28;20033;-87
2022/04/24 11:24:37;;;;;;;6.30;5.53;;;11.00;99.90;;;;;;5036976;28;20397;-88
2022/04/24 11:27:11;;;;;;;6.10;5.50;;;11.20;99.90;;;;;;5047393;28;20034;-87
2022/04/24 11:29:37;;;;;;;5.50;4.88;;;11.40;99.90;;;;;;5031131;28;20025;-87
2022/04/24 11:32:07;;;;;;;4.30;3.90;;;11.50;99.90;;;;;;5045684;28;20033;-88
2022/04/24 11:34:34;;;;;;;3.40;3.08;;;11.70;99.90;;;;;;5034109;28;20030;-89
2022/04/24 11:37:00;;;;;;;2.90;2.65;;;11.90;99.90;;;;;;5038098;28;20158;-88
2022/04/24 11:39:26;;;;;;;2.60;2.40;;;12.10;99.90;;;;;;5043959;28;20029;-89
2022/04/24 11:41:53;;;;;;;3.00;2.42;;;12.40;99.90;;;;;;5046110;28;20037;-89
2022/04/24 11:50:13;;;;;;;3.17;2.53;;;12.90;99.90;;;;;;5043607;28;20128;-87
2022/04/24 11:52:49;;;;;;;2.90;2.17;;;13.20;99.90;;;;;;5034587;28;20079;-89
2022/04/24 11:55:23;;;;;;;2.30;2.00;;;13.50;99.90;;;;;;5040942;28;20049;-88
2022/04/24 11:57:59;;;;;;;2.88;1.70;;;13.70;99.90;;;;;;5047943;28;20155;-87
2022/04/24 12:00:36;;;;;;;2.72;1.60;;;13.70;99.90;;;;;;5043245;28;20035;-87
2022/04/24 12:03:02;;;;;;;1.95;1.40;;;13.70;99.90;;;;;;5046433;28;20608;-88
2022/04/24 12:05:29;;;;;;;2.15;1.48;;;13.90;99.90;;;;;;5040168;28;20037;-88
2022/04/24 12:07:58;;;;;;;2.20;1.63;;;14.00;99.90;;;;;;5039535;28;20071;-88
2022/04/24 12:10:25;;;;;;;2.08;1.35;;;13.90;99.90;;;;;;5038763;28;20079;-87
2022/04/24 12:12:52;;;;;;;1.10;1.00;;;14.00;99.90;;;;;;5039743;28;20083;-88
2022/04/24 12:15:23;;;;;;;1.10;1.00;;;13.90;99.90;;;;;;5041224;28;20022;-88
2022/04/24 12:17:58;;;;;;;1.75;1.27;;;13.90;99.90;;;;;;5037333;28;20032;-88
2022/04/24 12:20:38;;;;;;;1.50;1.40;;;13.70;99.90;;;;;;5041215;28;20042;-88
2022/04/24 12:23:11;;;;;;;1.50;1.30;;;13.70;99.90;;;;;;5035177;28;20072;-88
2022/04/24 12:25:54;;;;;;;1.20;1.00;;;13.70;99.90;;;;;;5039232;28;20121;-88
2022/04/24 12:28:27;;;;;;;1.40;1.27;;;13.70;99.90;;;;;;5040774;28;20082;-88
2022/04/24 12:30:53;;;;;;;0.90;0.90;;;13.70;99.90;;;;;;5046146;28;20025;-88
2022/04/24 12:33:19;;;;;;;1.10;1.00;;;13.70;99.90;;;;;;5037431;28;20044;-88
2022/04/24 12:35:44;;;;;;;1.30;1.20;;;13.60;99.90;;;;;;5039964;28;20103;-88
2022/04/24 12:38:18;;;;;;;1.40;1.20;;;13.50;99.90;;;;;;5034614;28;20459;-86
2022/04/24 12:40:57;;;;;;;1.20;1.10;;;13.20;99.90;;;;;;5041946;28;20116;-87
2022/04/24 12:43:30;;;;;;;1.38;1.17;;;13.10;99.90;;;;;;5042965;28;20021;-87
2022/04/24 12:45:56;;;;;;;1.10;1.00;;;12.90;99.90;;;;;;5035997;28;20429;-87